KIAD/IAD METAR and TAF weather

Enter ICAO airport designator
Station Type Date Time Source
KIAD METAR 2020/07/15 06:52 UTC NOAA

KIAD 150652Z 00000KT 10SM BKN250 18/15 A3009 RMK AO2 SLP185 T01830150


Station Type Date Time Source
KIAD Decoded METAR 2020/07/15 06:52 UTC NOAA

DULLES INTERNATIONAL AIRPORT, VA, United States (KIAD) 38-56N 077-27W 93M
Jul 15, 2020 - 02:52 AM EDT / 2020.07.15 0652 UTC
Wind: Calm:0
Visibility: 10 mile(s):0
Sky conditions: mostly cloudy
Temperature: 64.9 F (18.3 C)
Dew Point: 59.0 F (15.0 C)
Relative Humidity: 81%
Pressure (altimeter): 30.09 in. Hg (1018 hPa)
ob: KIAD 150652Z 00000KT 10SM BKN250 18/15 A3009 RMK AO2 SLP185 T01830150
cycle: 7

Station Type Date Time Source
KIAD TAF 2020/07/15 06:40 UTC NOAA

TAF KIAD 150538Z 1506/1612 VRB03KT P6SM FEW250
FM151600 19005KT P6SM SCT060
FM160100 13007KT P6SM BKN050
FM160900 13006KT P6SM BKN025

Example: see airport list